ADDS METAR Data INFO
IDs: Format: Raw Decoded Include TAF

Data at: 1112 UTC 13 Dec 2017

KRFI 131055Z AUTO 00000KT 10SM CLR M03/M04 A3013 RMK AO2 T10301044
KRFI 131035Z AUTO 00000KT 10SM CLR M02/M04 A3013 RMK AO2 T10231040
KRFI 131010Z AUTO 00000KT 10SM CLR M03/M04 A3015 RMK AO2 T10281044
KRFI 130955Z AUTO 00000KT 10SM CLR M03/M04 A3015 RMK AO2 T10271042
KRFI 130935Z AUTO 00000KT 10SM CLR M02/M04 A3016 RMK AO2 T10211039
KRFI 130915Z AUTO 00000KT 10SM CLR M02/M04 A3016 RMK AO2 T10241043
KRFI 130855Z AUTO 00000KT 10SM CLR M03/M04 A3017 RMK AO2 T10271041
KRFI 130835Z AUTO 00000KT 10SM CLR M02/M04 A3017 RMK AO2 T10221043
KRFI 130815Z AUTO 00000KT 10SM CLR M02/M04 A3018 RMK AO2 T10211041
KRFI 130755Z AUTO 00000KT 10SM CLR M02/M04 A3018 RMK AO2 T10201041
KRFI 130735Z AUTO 00000KT 10SM CLR M02/M04 A3018 RMK AO2 T10161038
KRFI 130715Z AUTO 00000KT 10SM CLR M02/M04 A3019 RMK AO2 T10161040
KRFI 130655Z AUTO 00000KT 10SM CLR M02/M04 A3020 RMK AO2 T10161041
KRFI 130635Z AUTO 00000KT 10SM CLR M02/M04 A3020 RMK AO2 T10171040
KRFI 130615Z AUTO 00000KT 10SM CLR M02/M04 A3020 RMK AO2 T10191041
KRFI 130555Z AUTO 00000KT 10SM CLR M01/M04 A3020 RMK AO2 T10111038 10087 21013 401391013
KRFI 130535Z AUTO 00000KT 10SM CLR M01/M04 A3021 RMK AO2 T10111037
KRFI 130515Z AUTO 00000KT 10SM CLR M01/M04 A3022 RMK AO2 T10101037
KRFI 130455Z AUTO 00000KT 10SM CLR M01/M04 A3022 RMK AO2 T10071040
KRFI 130435Z AUTO 00000KT 10SM CLR 00/M03 A3022 RMK AO2 T10031035
KRFI 130415Z AUTO 00000KT 10SM CLR 00/M03 A3023 RMK AO2 T00001035
KRFI 130355Z AUTO 00000KT 10SM CLR 00/M03 A3024 RMK AO2 T00001033
KRFI 130335Z AUTO 00000KT 10SM CLR 00/M03 A3024 RMK AO2 T00031031
KRFI 130315Z AUTO 00000KT 10SM CLR 01/M03 A3025 RMK AO2 T00101035
KRFI 130255Z AUTO 00000KT 10SM CLR 01/M03 A3025 RMK AO2 T00121033
KRFI 130235Z AUTO 00000KT 10SM CLR 02/M03 A3025 RMK AO2 T00171034
KRFI 130215Z AUTO 00000KT 10SM CLR 03/M03 A3025 RMK AO2 T00291031
KRFI 130155Z AUTO 00000KT 10SM CLR 04/M04 A3025 RMK AO2 T00421038
KRFI 130135Z AUTO 26003KT 10SM CLR 06/M04 A3026 RMK AO2 T00561044
KRFI 130115Z AUTO 00000KT 10SM CLR 07/M06 A3026 RMK AO2 T00721057
KRFI 130055Z AUTO 00000KT 10SM CLR 07/M05 A3025 RMK AO2 T00711052
KRFI 130035Z AUTO 00000KT 10SM CLR 08/M05 A3025 RMK AO2 T00791051
KRFI 130015Z AUTO 00000KT 10SM CLR 08/M05 A3025 RMK AO2 T00831050
KRFI 122355Z AUTO 00000KT 10SM CLR 08/M04 A3025 RMK AO2 T00791042 10139 20079
KRFI 122335Z AUTO 00000KT 10SM CLR 09/M05 A3025 RMK AO2 T00931050
KRFI 122315Z AUTO 00000KT 10SM CLR 11/M05 A3025 RMK AO2 T01051055
KRFI 122255Z AUTO 31003KT 10SM CLR 12/M06 A3025 RMK AO2 T01151056
KRFI 122235Z AUTO 33005KT 10SM CLR 12/M05 A3025 RMK AO2 T01231050
KRFI 122215Z AUTO 30003KT 10SM CLR 13/M05 A3025 RMK AO2 T01271048
KRFI 122155Z AUTO 31006KT 10SM CLR 13/M04 A3025 RMK AO2 T01301045
KRFI 122135Z AUTO 31006KT 10SM CLR 14/M05 A3026 RMK AO2 T01351050
KRFI 122115Z AUTO 31007KT 10SM CLR 13/M05 A3026 RMK AO2 T01341053
KRFI 122055Z AUTO 30008KT 280V340 10SM CLR 14/M05 A3027 RMK AO2 T01351052
KRFI 122035Z AUTO 30005KT 10SM CLR 14/M06 A3027 RMK AO2 T01361058
KRFI 122015Z AUTO 34006KT 10SM CLR 14/M05 A3027 RMK AO2 T01371055
KRFI 121955Z AUTO 35006KT 320V020 10SM CLR 14/M05 A3027 RMK AO2 T01361051
KRFI 121935Z AUTO 32008KT 10SM CLR 14/M05 A3028 RMK AO2 T01381054
KRFI 121915Z AUTO 34008G14KT 10SM CLR 14/M05 A3029 RMK AO2 T01361049
KRFI 121855Z AUTO 33007KT 10SM CLR 13/M05 A3030 RMK AO2 T01311052
KRFI 121835Z AUTO 33007KT 10SM CLR 13/M05 A3032 RMK AO2 T01271050
KRFI 121815Z AUTO 33007KT 10SM CLR 12/M06 A3033 RMK AO2 T01241057
KRFI 121755Z AUTO 35008G14KT 300V010 10SM CLR 12/M05 A3034 RMK AO2 T01221051 10127 20075
KRFI 121735Z AUTO 35008KT 310V010 10SM CLR 12/M04 A3035 RMK AO2 T01161044
KRFI 121715Z AUTO 31007KT 280V360 10SM CLR 11/M04 A3036 RMK AO2 T01131036
KRFI 121655Z AUTO 32008KT 300V360 10SM CLR 11/M03 A3036 RMK AO2 T01121032
KRFI 121635Z AUTO 34007KT 10SM CLR 11/M03 A3037 RMK AO2 T01051028
KRFI 121615Z AUTO 34009G14KT 10SM CLR 10/M02 A3037 RMK AO2 T01001025
KRFI 121555Z AUTO 33007KT 10SM CLR 10/M02 A3037 RMK AO2 T00951019
KRFI 121535Z AUTO 32008G14KT 10SM CLR 09/M01 A3036 RMK AO2 T00911015
KRFI 121515Z AUTO 35010G15KT 10SM CLR 09/M01 A3035 RMK AO2 T00861013
KRFI 121455Z AUTO 34010G15KT 10SM CLR 08/M01 A3034 RMK AO2 T00821013
KRFI 121435Z AUTO 33006G17KT 10SM CLR 08/M01 A3034 RMK AO2 T00841011
KRFI 121415Z AUTO 34007G15KT 10SM CLR 08/M01 A3033 RMK AO2 T00811013
KRFI 121355Z AUTO 34005KT 10SM CLR 08/M01 A3033 RMK AO2 T00771012
KRFI 121335Z AUTO 33005KT 10SM CLR 08/M01 A3031 RMK AO2 T00751015
KRFI 121315Z AUTO 35007KT 10SM CLR 08/M02 A3031 RMK AO2 T00761016
KRFI 121255Z AUTO 34006KT 10SM CLR 08/M02 A3030 RMK AO2 T00771017
KRFI 121235Z AUTO 35005KT 10SM CLR 08/M02 A3029 RMK AO2 T00821018
KRFI 121215Z AUTO 34004KT 10SM CLR 09/M02 A3028 RMK AO2 T00861020
KRFI 121155Z AUTO 34005KT 10SM CLR 09/M02 A3027 RMK AO2 T00891022 10138 20089
KRFI 121135Z AUTO 34004KT 10SM CLR 09/M02 A3026 RMK AO2 T00941020
KRFI 121115Z AUTO 35008KT 10SM CLR 10/M02 A3025 RMK AO2 T00971022
KRFI 121055Z AUTO 35008KT 310V010 10SM CLR 10/M02 A3025 RMK AO2 T01021025
KRFI 121035Z AUTO 35011G14KT 10SM CLR 11/M03 A3024 RMK AO2 T01051027
KRFI 121015Z AUTO 35009G14KT 10SM CLR 11/M03 A3024 RMK AO2 T01061031
KRFI 120955Z AUTO 35007G21KT 10SM CLR 11/M04 A3023 RMK AO2 T01081038
KRFI 120935Z AUTO 34006KT 10SM CLR 11/M04 A3022 RMK AO2 T01101045
KRFI 120915Z AUTO 34007KT 10SM CLR 12/M05 A3021 RMK AO2 T01151050
KRFI 120855Z AUTO 35010G15KT 310V010 10SM CLR 12/M05 A3021 RMK AO2 T01201054
KRFI 120835Z AUTO 33004KT 10SM CLR 12/M05 A3020 RMK AO2 T01221055
KRFI 120815Z AUTO 35006KT 10SM CLR 12/M05 A3020 RMK AO2 T01201052
KRFI 120755Z AUTO 35006KT 10SM CLR 12/M05 A3019 RMK AO2 T01221050
KRFI 120735Z AUTO 35006KT 10SM CLR 13/M05 A3018 RMK AO2 T01301050
KRFI 120715Z AUTO 34007KT 10SM CLR 14/M05 A3017 RMK AO2 T01351048
KRFI 120655Z AUTO 34007KT 10SM CLR 14/M04 A3017 RMK AO2 T01381044
KRFI 120635Z AUTO 34006KT 10SM CLR 14/M03 A3016 RMK AO2 T01351035
KRFI 120615Z AUTO 33006KT 10SM CLR 13/M02 A3016 RMK AO2 T01271021
KRFI 120555Z AUTO 32003KT 10SM CLR 12/M01 A3016 RMK AO2 T01221011 10188 20067 402451017
KRFI 120535Z AUTO 29005KT 10SM CLR 12/M01 A3015 RMK AO2 T01151011
KRFI 120515Z AUTO 29005KT 10SM CLR 11/M01 A3015 RMK AO2 T01121010
KRFI 120455Z AUTO 00000KT 10SM CLR 07/M01 A3014 RMK AO2 T00721013
KRFI 120435Z AUTO 26003KT 10SM CLR 08/M01 A3014 RMK AO2 T00831010
KRFI 120415Z AUTO 25003KT 10SM CLR 11/M01 A3013 RMK AO2 T01141015
KRFI 120355Z AUTO 25003KT 10SM CLR 12/M02 A3014 RMK AO2 T01201017
KRFI 120335Z AUTO 25003KT 10SM CLR 13/M02 A3014 RMK AO2 T01291021
KRFI 120310Z AUTO 00000KT 10SM CLR 14/M03 A3014 RMK AO2 T01351026
KRFI 120255Z AUTO 24003KT 10SM CLR 14/M03 A3013 RMK AO2 T01361027
KRFI 120235Z AUTO 00000KT 10SM CLR 14/M03 A3013 RMK AO2 T01401032
KRFI 120215Z AUTO 00000KT 10SM CLR 15/M03 A3013 RMK AO2 T01501034
KRFI 120155Z AUTO 23003KT 10SM CLR 15/M03 A3013 RMK AO2 T01541034
KRFI 120135Z AUTO 25003KT 10SM CLR 17/M04 A3013 RMK AO2 T01651037
KRFI 120115Z AUTO 23004KT 10SM CLR 17/M04 A3012 RMK AO2 T01741036
KRFI 120055Z AUTO 00000KT 10SM CLR 17/M03 A3012 RMK AO2 T01691027
KRFI 120035Z AUTO 00000KT 10SM CLR 18/M02 A3012 RMK AO2 T01761025
KRFI 120015Z AUTO 00000KT 10SM CLR 19/M02 A3011 RMK AO2 T01851025
KRFI 112355Z AUTO 23004KT 10SM CLR 19/M02 A3011 RMK AO2 T01901025 10245 20190
KRFI 112335Z AUTO 23004KT 10SM CLR 20/M03 A3010 RMK AO2 T01961029
KRFI 112315Z AUTO 23003KT 10SM CLR 20/M04 A3010 RMK AO2 T02041036